Weather reports worldwide

Advertisment
Alto De Los Leones, Spain (8217): temperature & dewpoint: 16.06.2018 20:00:00 - 22.06.2018 20:00:00 (CEST)Alto De Los Leones, Spain (8217): wind speed & gusts: 16.06.2018 20:00:00 - 22.06.2018 20:00:00 (CEST)Alto De Los Leones, Spain (8217): wind direction: 16.06.2018 20:00:00 - 22.06.2018 20:00:00 (CEST)Alto De Los Leones, Spain (8217): precipitation: 16.06.2018 20:00:00 - 22.06.2018 20:00:00 (CEST)
Date & Time tt [°C] td [°C] ff [km/h] ff [kn] fx [km/h] fx [kn] dd rr [mm]
22.06.2018 20:00:00 - - - - - - - -
22.06.2018 19:00:00 24,8 4,5 8 4 22 12 NE 0,0
22.06.2018 18:00:00 24,4 4,1 9 5 24 13 WSW 0,0
22.06.2018 17:00:00 24,8 5,0 10 5 22 12 WSW 0,0
22.06.2018 16:00:00 23,6 3,9 12 6 28 15 WSW 0,0
22.06.2018 15:00:00 23,0 3,9 16 8 32 18 NE 0,0
22.06.2018 14:00:00 22,9 4,8 16 9 34 19 NE -
22.06.2018 13:00:00 22,4 4,5 17 9 32 18 NE 0,0
22.06.2018 12:00:00 21,5 4,1 16 9 27 15 NE 0,0
22.06.2018 11:00:00 20,5 5,3 17 9 29 16 NE 0,0
22.06.2018 10:00:00 19,3 4,6 19 11 29 16 NE 0,0
22.06.2018 09:00:00 18,3 4,5 16 9 26 14 NE 0,0
22.06.2018 08:00:00 16,3 3,4 16 8 27 14 NE -
22.06.2018 07:00:00 15,1 1,7 16 9 24 13 NE 0,0
22.06.2018 06:00:00 15,2 1,7 12 7 22 12 N 0,0
22.06.2018 05:00:00 16,0 0,9 12 6 18 10 N 0,0
22.06.2018 04:00:00 16,8 0,0 8 4 16 8 E 0,0
22.06.2018 03:00:00 17,4 -0,7 8 4 12 7 NNE 0,0
22.06.2018 02:00:00 18,5 -1,0 6 3 12 6 N -
22.06.2018 01:00:00 18,9 -1,0 5 3 10 5 N 0,0
22.06.2018 00:00:00 19,3 -0,3 0 0 7 4 N 0,0
21.06.2018 23:00:00 18,9 -1,0 4 2 6 4 NNE 0,0
21.06.2018 22:00:00 19,5 -0,5 1 1 10 5 E 0,0
21.06.2018 21:00:00 22,5 0,9 5 3 11 6 N 0,0
21.06.2018 20:00:00 23,4 1,1 8 4 23 12 N -
21.06.2018 19:00:00 23,8 0,9 11 6 22 12 N 0,0
21.06.2018 18:00:00 23,7 0,6 15 8 28 15 NE 0,0
21.06.2018 17:00:00 23,2 2,1 16 8 29 16 NE 0,0
21.06.2018 16:00:00 23,2 4,1 15 8 29 16 NE 0,0
21.06.2018 15:00:00 22,7 6,4 14 8 31 17 WSW 0,0
21.06.2018 14:00:00 22,1 6,4 16 8 32 17 WSW -
21.06.2018 13:00:00 20,9 7,1 16 9 29 16 NNE 0,0
21.06.2018 12:00:00 19,7 6,4 16 9 34 18 N 0,0
21.06.2018 11:00:00 19,2 5,9 17 9 27 15 N 0,0
21.06.2018 10:00:00 17,8 6,1 16 9 29 16 N 0,0
21.06.2018 09:00:00 17,1 6,2 18 10 26 14 N 0,0
21.06.2018 08:00:00 16,2 6,5 13 7 20 11 E -
21.06.2018 07:00:00 13,8 6,7 11 6 21 12 WSW 0,0
21.06.2018 06:00:00 14,0 9,2 1 1 8 5 E 0,0
21.06.2018 05:00:00 13,7 8,9 6 3 13 7 E 0,0
21.06.2018 04:00:00 14,4 7,4 10 5 12 7 E 0,0
21.06.2018 03:00:00 16,8 6,1 1 1 23 12 E 0,0
21.06.2018 02:00:00 19,0 5,8 9 5 25 13 N -
21.06.2018 01:00:00 19,2 4,5 5 3 11 6 E 0,0
21.06.2018 00:00:00 20,1 4,1 3 2 4 2 E 0,0
20.06.2018 23:00:00 20,3 4,3 0 0 0 0 N 0,0
20.06.2018 22:00:00 20,6 4,1 0 0 8 4 E 0,0
20.06.2018 21:00:00 22,5 5,0 5 3 11 6 E 0,0
20.06.2018 20:00:00 23,2 5,6 7 4 13 7 E -
20.06.2018 19:00:00 23,9 6,2 9 5 16 9 E 0,0
20.06.2018 18:00:00 23,7 6,1 9 5 19 10 E 0,0
20.06.2018 17:00:00 23,6 5,9 10 5 23 13 E 0,0
20.06.2018 16:00:00 23,2 6,1 11 6 26 14 N 0,0
20.06.2018 15:00:00 22,7 5,6 12 6 27 15 E 0,0
20.06.2018 14:00:00 22,4 7,4 17 9 28 15 E -
20.06.2018 13:00:00 21,7 6,7 12 7 26 14 E 0,0
20.06.2018 12:00:00 20,3 7,3 13 7 22 12 E 0,0
20.06.2018 11:00:00 19,9 7,3 12 7 22 12 E 0,0
20.06.2018 10:00:00 17,7 5,6 16 8 23 12 E 0,0
20.06.2018 09:00:00 16,9 5,5 17 9 24 13 E 0,0
20.06.2018 08:00:00 15,3 5,1 16 9 26 14 N -
20.06.2018 07:00:00 14,4 4,3 16 9 22 12 E 0,0
20.06.2018 06:00:00 14,4 4,1 16 8 24 13 N 0,0
20.06.2018 05:00:00 14,5 3,6 16 9 26 14 N 0,0
20.06.2018 04:00:00 15,9 3,6 15 8 22 12 E 0,0
20.06.2018 03:00:00 16,2 3,6 15 8 21 11 E 0,0
20.06.2018 02:00:00 16,9 3,9 13 7 24 13 E -
20.06.2018 01:00:00 17,7 4,6 6 3 14 7 E 0,0
20.06.2018 00:00:00 18,1 4,3 7 4 11 6 E 0,0
19.06.2018 23:00:00 18,8 4,1 4 2 9 5 E 0,0
19.06.2018 22:00:00 19,2 3,8 6 4 9 5 E 0,0
19.06.2018 21:00:00 20,3 3,9 5 3 8 5 E 0,0
19.06.2018 20:00:00 22,9 5,3 5 3 16 8 E -
19.06.2018 19:00:00 23,1 5,5 8 5 16 9 E 0,0
19.06.2018 18:00:00 22,3 4,3 6 4 19 10 E 0,0
19.06.2018 17:00:00 22,5 4,5 11 6 21 11 E 0,0
19.06.2018 16:00:00 22,1 4,6 13 7 28 15 E 0,0
19.06.2018 15:00:00 21,8 4,3 14 8 31 17 E 0,0
19.06.2018 14:00:00 21,3 4,3 17 9 27 14 E -
19.06.2018 13:00:00 20,3 3,9 14 8 26 14 E 0,0
19.06.2018 12:00:00 18,5 3,6 14 8 27 15 N 0,0
19.06.2018 11:00:00 17,6 1,9 17 9 33 18 NE 0,0
19.06.2018 10:00:00 17,7 2,1 17 9 27 15 E 0,0
19.06.2018 09:00:00 16,8 1,7 14 7 23 12 E 0,0
19.06.2018 08:00:00 14,8 2,3 15 8 23 12 E -
19.06.2018 07:00:00 13,1 2,9 16 8 22 12 E 0,0
19.06.2018 06:00:00 12,3 2,5 14 8 21 12 E 0,0
19.06.2018 05:00:00 11,9 3,6 15 8 23 12 E 0,0
19.06.2018 04:00:00 12,0 5,6 16 8 20 11 E 0,0
19.06.2018 03:00:00 13,2 6,7 12 7 16 9 E 0,0
19.06.2018 02:00:00 14,2 8,4 4 2 14 8 E -
19.06.2018 01:00:00 12,2 8,5 12 7 24 13 E 0,0
19.06.2018 00:00:00 13,3 8,5 18 10 24 13 E 0,0
18.06.2018 23:00:00 14,7 8,0 17 9 25 14 E 0,0
18.06.2018 22:00:00 16,2 6,5 18 10 27 15 E 0,0
18.06.2018 21:00:00 19,5 5,1 18 10 27 15 E 0,0
18.06.2018 20:00:00 20,8 3,9 19 11 31 17 E -
18.06.2018 19:00:00 22,4 4,5 18 10 30 16 E 0,0
18.06.2018 18:00:00 22,3 4,8 16 9 66 36 E 0,0
18.06.2018 17:00:00 21,6 3,8 16 9 29 16 E 0,0
18.06.2018 16:00:00 22,2 4,3 15 8 32 18 E 0,0
18.06.2018 15:00:00 22,2 4,3 9 5 34 19 E 0,0
18.06.2018 14:00:00 22,2 4,6 8 5 31 17 E -
18.06.2018 13:00:00 21,1 3,2 11 6 28 15 E 0,0
18.06.2018 12:00:00 19,9 2,3 16 9 25 14 E 0,0
18.06.2018 11:00:00 18,5 1,1 13 7 19 11 E 0,0
18.06.2018 10:00:00 17,0 0,2 10 6 23 13 E 0,0
18.06.2018 09:00:00 14,3 1,9 17 9 27 15 E 0,0
18.06.2018 08:00:00 13,0 2,9 19 10 25 14 E -
18.06.2018 07:00:00 13,3 2,3 16 8 24 13 E 0,0
18.06.2018 06:00:00 12,8 1,7 17 9 24 13 E 0,0
18.06.2018 05:00:00 14,0 1,9 18 10 27 14 N 0,0
18.06.2018 04:00:00 13,4 1,1 16 8 26 14 E 0,0
18.06.2018 03:00:00 14,3 0,4 20 11 31 17 N 0,0
18.06.2018 02:00:00 12,9 -0,7 16 9 27 15 E -
18.06.2018 01:00:00 12,8 0,4 14 8 29 15 E 0,0
18.06.2018 00:00:00 13,5 0,4 20 11 26 14 E 0,0
17.06.2018 23:00:00 14,3 -0,5 20 11 32 17 E 0,0
17.06.2018 22:00:00 15,7 -3,3 21 12 32 17 E 0,0
17.06.2018 21:00:00 18,6 -3,6 23 12 36 19 E 0,0
17.06.2018 20:00:00 20,1 0,0 23 12 40 22 E -
17.06.2018 19:00:00 21,1 2,9 19 10 38 20 E 0,0
17.06.2018 18:00:00 20,6 3,2 23 13 39 21 E 0,0
17.06.2018 17:00:00 21,0 3,2 24 13 39 21 E 0,0
17.06.2018 16:00:00 21,2 4,3 21 11 35 19 E 0,0
17.06.2018 15:00:00 20,3 3,9 19 10 40 22 N 0,0
17.06.2018 14:00:00 19,4 3,0 24 13 39 21 N -
17.06.2018 13:00:00 19,4 3,6 22 12 34 18 E 0,0
17.06.2018 12:00:00 18,2 2,9 17 9 25 14 E 0,0
17.06.2018 11:00:00 17,6 1,9 12 7 19 11 E 0,0
17.06.2018 10:00:00 16,2 0,2 13 7 19 10 E 0,0
17.06.2018 09:00:00 15,9 -0,5 6 3 8 4 E 0,0
17.06.2018 08:00:00 14,5 -2,0 3 2 10 5 E -
17.06.2018 07:00:00 12,9 -3,3 8 4 11 6 E 0,0
17.06.2018 06:00:00 13,4 -3,0 8 4 21 12 E 0,0
17.06.2018 05:00:00 13,7 -3,0 6 3 13 7 E 0,0
17.06.2018 04:00:00 13,9 -3,9 9 5 16 8 E 0,0
17.06.2018 03:00:00 12,4 -3,0 12 6 21 11 E 0,0
17.06.2018 02:00:00 11,8 -0,7 15 8 22 12 E -
17.06.2018 01:00:00 12,2 -1,0 17 9 23 12 E 0,0
17.06.2018 00:00:00 13,0 -2,2 18 10 26 14 E 0,0
16.06.2018 23:00:00 13,9 -1,7 16 9 25 13 E 0,0
16.06.2018 22:00:00 14,9 -1,0 16 9 33 18 E 0,0
16.06.2018 21:00:00 18,5 0,2 22 12 34 18 E 0,0
16.06.2018 20:00:00 19,7 0,2 24 13 37 20 N -

tt = temperature
td = dewpoint
ff = wind speed
fx = gusts
dd = wind direction
rr = precipitation

Next stations